Thunder radar more information blitzortung!


Radar de pluja more information rain snow radar


Visita la nostra xarxa de llocs de meteo:

Template documentation
and downloads

And another site



No particular awareness of the weather is required.    There are no Weather-warnings

Pagina Historial Weather Underground text

Diari Resum May 31, 2017 Unitats:  Imperial    Mètric   Tant
« Previous Dia
SegĂźent Dia »
Diari Setmana Mensual Anual Personalitzada
  Maxima: Minima: Media:
Temperatura: TemperatureC °F 15.7 °F 21.8 °F
Punt de rosada: DewpointC °F 8.6 °F 10.2 °F
Humitat: Humidity % 35 % 48 %
Wind Speed: WindSpeedKMH mph 0.0 mph 6.1 mph
RĂ fegues de vent: WindSpeedGustKMH mph - -
Vent:- - SE
Pression baro: PressurehPa in 1016.8 in -
Precipitacions: 0.0 in    
Historical Graphs
 
 
Dades de taula per May 31, 2017
Temps Temperatura Punt de rosada Pression baro Vent Wind Speed RĂ fegues de vent Humitat Rainfall Rate (Hourly)
TemperatureC °F DewpointC °F PressurehPa in Calm     Humidity % HourlyPrecipMM in
00:04 17.8 °F 9.2 °F 1017.8 in Calm     57 % 0.0 in
00:05 15.7 °F 9.1 °F 1017.8 in Calm   3.2 mph 65 % 0.0 in
00:15 15.7 °F 9.1 °F 1017.8 in West 1.6 mph 3.2 mph 65 % 0.0 in
00:25 15.9 °F 9.3 °F 1017.8 in WSW 3.2 mph 4.8 mph 65 % 0.0 in
00:35 15.9 °F 9.3 °F 1017.8 in WSW 1.6 mph 3.2 mph 65 % 0.0 in
00:45 15.9 °F 9.3 °F 1017.8 in Calm   4.8 mph 65 % 0.0 in
00:55 15.8 °F 9.2 °F 1016.8 in West 1.6 mph 3.2 mph 65 % 0.0 in
01:05 15.9 °F 9.3 °F 1017.8 in WSW 1.6 mph 4.8 mph 65 % 0.0 in
01:15 15.8 °F 9.2 °F 1017.8 in SW 1.6 mph 3.2 mph 65 % 0.0 in
01:25 15.8 °F 9.2 °F 1017.8 in SW 1.6 mph 3.2 mph 65 % 0.0 in
01:35 15.8 °F 9.2 °F 1017.8 in Calm   3.2 mph 65 % 0.0 in
01:45 15.8 °F 9.2 °F 1017.8 in Calm   1.6 mph 65 % 0.0 in
01:55 16.0 °F 9.7 °F 1017.8 in Calm     66 % 0.0 in
02:05 16.2 °F 9.8 °F 1017.8 in Calm   3.2 mph 66 % 0.0 in
02:15 16.2 °F 9.8 °F 1017.8 in North 1.6 mph 3.2 mph 66 % 0.0 in
02:25 16.0 °F 9.7 °F 1018.8 in Calm   3.2 mph 66 % 0.0 in
02:35 16.1 °F 9.7 °F 1018.8 in WSW 1.6 mph 3.2 mph 66 % 0.0 in
02:45 16.2 °F 9.8 °F 1018.8 in WSW 1.6 mph 1.6 mph 66 % 0.0 in
02:55 16.3 °F 9.9 °F 1018.8 in Calm     66 % 0.0 in
03:05 16.4 °F 9.8 °F 1018.8 in Calm   1.6 mph 65 % 0.0 in
03:15 16.7 °F 10.3 °F 1018.8 in Calm   1.6 mph 66 % 0.0 in
03:25 17.1 °F 10.4 °F 1018.8 in Calm     65 % 0.0 in
03:35 17.7 °F 10.8 °F 1018.8 in North 1.6 mph 3.2 mph 64 % 0.0 in
03:45 18.4 °F 11.2 °F 1018.8 in NE 1.6 mph 3.2 mph 63 % 0.0 in
03:55 18.3 °F 11.1 °F 1018.8 in NE 4.8 mph 6.4 mph 63 % 0.0 in
04:05 18.8 °F 11.6 °F 1018.8 in NNE 1.6 mph 4.8 mph 63 % 0.0 in
04:15 19.4 °F 11.4 °F 1018.8 in NNE 3.2 mph 3.2 mph 60 % 0.0 in
04:25 19.5 °F 11.5 °F 1018.8 in ENE 1.6 mph 4.8 mph 60 % 0.0 in
04:35 19.7 °F 11.4 °F 1018.8 in ENE 3.2 mph 6.4 mph 59 % 0.0 in
04:45 19.9 °F 11.7 °F 1018.8 in NE 3.2 mph 6.4 mph 59 % 0.0 in
04:55 20.7 °F 12.1 °F 1018.8 in NE 1.6 mph 4.8 mph 58 % 0.0 in
05:05 20.4 °F 11.8 °F 1018.8 in NE 4.8 mph 6.4 mph 58 % 0.0 in
05:15 20.2 °F 11.7 °F 1018.8 in NE 1.6 mph 11.3 mph 58 % 0.0 in
05:25 20.3 °F 11.8 °F 1018.8 in NE 4.8 mph 6.4 mph 58 % 0.0 in
05:35 20.6 °F 12.1 °F 1019.9 in NE 3.2 mph 9.7 mph 58 % 0.0 in
05:40 20.7 °F 11.9 °F 1019.9 in NNE 4.8 mph 4.8 mph 57 % 0.0 in
10:42 20.8 °F 11.9 °F 1019.9 in NE 6.4 mph 6.4 mph 57 % 0.0 in
10:43 20.8 °F 11.9 °F 1019.9 in NE 7.4 mph 7.4 mph 57 % 0.0 in
10:48 21.1 °F 12.2 °F 1019.9 in NE 7.4 mph 7.4 mph 57 % 0.0 in
10:53 21.2 °F 12.1 °F 1018.8 in North 9.3 mph 9.3 mph 56 % 0.0 in
10:58 21.4 °F 12.3 °F 1018.8 in NNE 7.4 mph 7.4 mph 56 % 0.0 in
11:03 21.7 °F 12.3 °F 1018.8 in North 5.6 mph 5.6 mph 55 % 0.0 in
11:08 22.2 °F 12.4 °F 1018.8 in ENE 3.7 mph 3.7 mph 54 % 0.0 in
11:13 22.3 °F 11.9 °F 1018.8 in ENE 5.6 mph 5.6 mph 52 % 0.0 in
11:18 22.7 °F 12.1 °F 1018.8 in ENE 5.6 mph 5.6 mph 51 % 0.0 in
11:23 22.7 °F 11.7 °F 1018.8 in ESE 3.9 mph 3.9 mph 50 % 0.0 in
11:28 23.4 °F 11.8 °F 1018.8 in SE 3.7 mph 3.7 mph 48 % 0.0 in
11:33 23.6 °F 11.9 °F 1018.8 in NNE 7.4 mph 7.4 mph 48 % 0.0 in
11:38 23.6 °F 11.9 °F 1018.8 in ENE 7.9 mph 7.9 mph 48 % 0.0 in
11:43 24.0 °F 12.3 °F 1018.8 in North 7.4 mph 7.4 mph 48 % 0.0 in
11:48 23.9 °F 11.9 °F 1018.8 in NE 9.3 mph 9.3 mph 47 % 0.0 in
11:53 23.7 °F 11.7 °F 1018.8 in ENE 6.4 mph 6.4 mph 47 % 0.0 in
11:58 23.8 °F 11.8 °F 1018.8 in NE 9.3 mph 9.3 mph 47 % 0.0 in
12:03 23.7 °F 11.4 °F 1018.8 in NNE 7.4 mph 7.4 mph 46 % 0.0 in
12:08 24.1 °F 11.8 °F 1018.8 in ENE 7.4 mph 7.4 mph 46 % 0.0 in
12:13 23.9 °F 11.6 °F 1018.8 in ENE 7.4 mph 7.4 mph 46 % 0.0 in
12:18 24.4 °F 12.0 °F 1018.8 in ESE 5.6 mph 5.6 mph 46 % 0.0 in
12:23 24.5 °F 11.8 °F 1018.8 in SSE 5.6 mph 5.6 mph 45 % 0.0 in
12:28 24.7 °F 11.9 °F 1018.8 in NE 6.9 mph 6.9 mph 45 % 0.0 in
12:33 24.6 °F 11.9 °F 1018.8 in NE 7.4 mph 7.4 mph 45 % 0.0 in
12:38 24.5 °F 11.4 °F 1018.8 in NW 7.4 mph 7.4 mph 44 % 0.0 in
12:43 25.1 °F 12.0 °F 1018.8 in SW 3.7 mph 3.7 mph 44 % 0.0 in
12:48 25.6 °F 12.4 °F 1018.8 in ENE 3.7 mph 3.7 mph 44 % 0.0 in
12:53 25.6 °F 11.7 °F 1018.8 in SSE 5.6 mph 5.6 mph 42 % 0.0 in
12:58 25.7 °F 11.8 °F 1018.8 in ENE 3.7 mph 3.7 mph 42 % 0.0 in
13:03 26.0 °F 12.4 °F 1018.8 in East 1.9 mph 1.9 mph 43 % 0.0 in
13:08 25.9 °F 12.0 °F 1017.8 in East 3.7 mph 4.2 mph 42 % 0.0 in
13:13 25.9 °F 12.0 °F 1017.8 in NE 7.4 mph 7.4 mph 42 % 0.0 in
13:18 25.9 °F 11.6 °F 1017.8 in NE 7.4 mph 7.4 mph 41 % 0.0 in
13:23 25.8 °F 11.6 °F 1017.8 in East 5.0 mph 5.0 mph 41 % 0.0 in
13:28 26.0 °F 11.7 °F 1017.8 in NE 4.7 mph 4.7 mph 41 % 0.0 in
13:33 26.2 °F 11.6 °F 1017.8 in NNW 9.3 mph 9.3 mph 40 % 0.0 in
13:38 25.8 °F 10.8 °F 1017.8 in NE 13.0 mph 13.0 mph 39 % 0.0 in
13:43 26.3 °F 11.6 °F 1017.8 in West 9.5 mph 9.5 mph 40 % 0.0 in
13:48 26.0 °F 10.9 °F 1017.8 in SW 9.3 mph 9.3 mph 39 % 0.0 in
13:53 26.3 °F 11.2 °F 1017.8 in ENE 8.7 mph 8.7 mph 39 % 0.0 in
13:56 26.1 °F 11.1 °F 1017.8 in NE 7.4 mph 7.4 mph 39 % 0.0 in
14:01 26.0 °F 10.6 °F 1017.8 in SSE 9.7 mph 9.7 mph 38 % 0.0 in
14:06 25.9 °F 10.9 °F 1017.8 in SW 5.8 mph 5.8 mph 39 % 0.0 in
14:11 26.2 °F 10.3 °F 1017.8 in ESE 11.1 mph 11.1 mph 37 % 0.0 in
14:16 25.9 °F 10.1 °F 1017.8 in ESE 7.4 mph 7.4 mph 37 % 0.0 in
14:21 26.1 °F 10.3 °F 1016.8 in ESE 11.1 mph 11.1 mph 37 % 0.0 in
14:26 26.3 °F 10.8 °F 1016.8 in ESE 7.4 mph 7.4 mph 38 % 0.0 in
14:31 26.3 °F 10.8 °F 1016.8 in WNW 4.2 mph 4.2 mph 38 % 0.0 in
14:36 26.7 °F 10.8 °F 1016.8 in East 9.3 mph 9.3 mph 37 % 0.0 in
14:41 27.0 °F 11.1 °F 1016.8 in WSW 3.2 mph 3.2 mph 37 % 0.0 in
14:46 27.2 °F 11.2 °F 1016.8 in NNE 9.3 mph 9.3 mph 37 % 0.0 in
14:51 26.9 °F 11.0 °F 1017.8 in East 4.7 mph 4.7 mph 37 % 0.0 in
14:56 27.4 °F 11.4 °F 1017.8 in SSE 9.5 mph 9.5 mph 37 % 0.0 in
15:01 27.5 °F 11.5 °F 1017.8 in SSW 7.4 mph 7.4 mph 37 % 0.0 in
15:06 27.6 °F 11.6 °F 1017.8 in SSW 7.4 mph 7.4 mph 37 % 0.0 in
15:11 28.4 °F 12.3 °F 1017.8 in SW 5.8 mph 5.8 mph 37 % 0.0 in
15:16 28.3 °F 11.8 °F 1017.8 in East 9.3 mph 9.3 mph 36 % 0.0 in
15:21 27.7 °F 11.3 °F 1017.8 in ENE 9.3 mph 9.3 mph 36 % 0.0 in
15:26 27.1 °F 10.7 °F 1017.8 in SSE 11.1 mph 13.0 mph 36 % 0.0 in
15:31 27.2 °F 10.8 °F 1017.8 in East 7.4 mph 7.4 mph 36 % 0.0 in
15:36 26.8 °F 11.3 °F 1017.8 in SW 7.4 mph 7.4 mph 38 % 0.0 in
15:41 26.9 °F 11.0 °F 1017.8 in SE 20.4 mph 20.4 mph 37 % 0.0 in
15:46 26.6 °F 10.7 °F 1017.8 in ESE 13.0 mph 13.0 mph 37 % 0.0 in
15:51 26.4 °F 10.6 °F 1016.8 in SSW 11.1 mph 11.1 mph 37 % 0.0 in
15:56 26.4 °F 10.6 °F 1016.8 in ENE 11.1 mph 11.1 mph 37 % 0.0 in
16:01 26.7 °F 10.8 °F 1016.8 in SSE 7.4 mph 7.4 mph 37 % 0.0 in
16:06 26.8 °F 10.9 °F 1017.8 in SE 14.8 mph 14.8 mph 37 % 0.0 in
16:11 27.5 °F 11.5 °F 1017.8 in South 8.7 mph 8.7 mph 37 % 0.0 in
16:16 27.9 °F 11.9 °F 1017.8 in SSW 9.3 mph 9.3 mph 37 % 0.0 in
16:21 28.4 °F 11.9 °F 1017.8 in South 9.3 mph 9.3 mph 36 % 0.0 in
16:26 26.9 °F 11.0 °F 1017.8 in NE 9.3 mph 9.3 mph 37 % 0.0 in
16:31 26.9 °F 10.6 °F 1017.8 in SSE 9.7 mph 9.7 mph 36 % 0.0 in
16:36 26.8 °F 10.9 °F 1017.8 in ESE 7.9 mph 7.9 mph 37 % 0.0 in
16:41 26.5 °F 10.2 °F 1017.8 in ENE 19.5 mph 19.5 mph 36 % 0.0 in
16:46 26.3 °F 10.1 °F 1017.8 in SE 11.1 mph 11.1 mph 36 % 0.0 in
16:51 25.9 °F 9.7 °F 1017.8 in East 13.0 mph 13.0 mph 36 % 0.0 in
16:56 25.8 °F 9.6 °F 1017.8 in ESE 13.0 mph 13.0 mph 36 % 0.0 in
17:01 25.4 °F 8.8 °F 1017.8 in East 14.8 mph 14.8 mph 35 % 0.0 in
17:06 25.3 °F 8.7 °F 1016.8 in East 13.0 mph 13.0 mph 35 % 0.0 in
17:11 25.6 °F 9.0 °F 1016.8 in ESE 14.8 mph 14.8 mph 35 % 0.0 in
17:16 25.6 °F 9.0 °F 1016.8 in ENE 13.0 mph 13.0 mph 35 % 0.0 in
17:21 25.4 °F 8.8 °F 1017.8 in East 16.7 mph 16.7 mph 35 % 0.0 in
17:26 25.1 °F 8.6 °F 1017.8 in ESE 16.7 mph 16.7 mph 35 % 0.0 in
17:31 24.9 °F 8.8 °F 1017.8 in East 16.7 mph 16.7 mph 36 % 0.0 in
17:36 24.9 °F 8.8 °F 1017.8 in ESE 18.5 mph 18.5 mph 36 % 0.0 in
17:37 24.9 °F 9.2 °F 1017.8 in ESE 14.8 mph 14.8 mph 37 % 0.0 in
17:42 24.7 °F 9.0 °F 1017.8 in ENE 14.8 mph 14.8 mph 37 % 0.0 in
17:47 24.5 °F 8.8 °F 1017.8 in SSE 18.5 mph 18.5 mph 37 % 0.0 in
17:52 24.7 °F 9.0 °F 1016.8 in SE 17.2 mph 17.2 mph 37 % 0.0 in
17:57 24.5 °F 8.8 °F 1016.8 in SE 13.0 mph 13.0 mph 37 % 0.0 in
18:02 24.5 °F 8.8 °F 1016.8 in ESE 14.0 mph 14.0 mph 37 % 0.0 in
18:07 24.3 °F 8.7 °F 1017.8 in ESE 16.7 mph 16.7 mph 37 % 0.0 in
18:12 24.1 °F 8.9 °F 1017.8 in ESE 15.1 mph 15.1 mph 38 % 0.0 in
18:17 24.2 °F 8.6 °F 1017.8 in South 16.9 mph 16.9 mph 37 % 0.0 in
18:22 24.2 °F 8.6 °F 1016.8 in SE 16.7 mph 16.7 mph 37 % 0.0 in
18:27 24.1 °F 8.9 °F 1016.8 in East 13.0 mph 13.0 mph 38 % 0.0 in
18:32 24.0 °F 8.8 °F 1016.8 in ESE 14.0 mph 14.0 mph 38 % 0.0 in
18:37 24.2 °F 9.0 °F 1016.8 in ESE 20.6 mph 20.6 mph 38 % 0.0 in
18:42 24.0 °F 8.8 °F 1016.8 in ESE 16.7 mph 16.7 mph 38 % 0.0 in
18:47 24.0 °F 8.8 °F 1016.8 in ESE 13.0 mph 13.0 mph 38 % 0.0 in
18:52 24.2 °F 9.0 °F 1016.8 in ESE 13.0 mph 13.0 mph 38 % 0.0 in
18:57 23.9 °F 9.1 °F 1016.8 in SSE 14.0 mph 14.0 mph 39 % 0.0 in
19:02 23.8 °F 9.0 °F 1016.8 in East 13.0 mph 13.0 mph 39 % 0.0 in
19:07 23.9 °F 9.1 °F 1016.8 in East 11.1 mph 11.1 mph 39 % 0.0 in
19:12 23.8 °F 9.0 °F 1016.8 in SE 14.8 mph 14.8 mph 39 % 0.0 in
19:15 18.8 °F 10.1 °F 1019.9 in Calm   1.6 mph 57 % 0.0 in
19:17 23.8 °F 9.0 °F 1016.8 in ESE 11.1 mph 11.1 mph 39 % 0.0 in
19:22 23.7 °F 8.9 °F 1016.8 in SSE 9.5 mph 9.5 mph 39 % 0.0 in
19:25 18.7 °F 10.0 °F 1018.8 in Calm   1.6 mph 57 % 0.0 in
19:27 23.6 °F 8.8 °F 1016.8 in East 9.5 mph 9.5 mph 39 % 0.0 in
19:32 23.6 °F 8.8 °F 1016.8 in SSE 15.8 mph 15.8 mph 39 % 0.0 in
19:35 18.4 °F 9.7 °F 1018.8 in Calm     57 % 0.0 in
19:37 23.3 °F 8.6 °F 1016.8 in ESE 9.3 mph 9.3 mph 39 % 0.0 in
19:42 23.2 °F 8.8 °F 1016.8 in ESE 11.1 mph 11.1 mph 40 % 0.0 in
19:45 18.0 °F 9.3 °F 1018.8 in WNW 1.6 mph 3.2 mph 57 % 0.0 in
19:46 23.2 °F 8.8 °F 1016.8 in East 11.1 mph 11.1 mph 40 % 0.0 in
19:51 23.3 °F 8.9 °F 1017.8 in SSW 5.6 mph 5.6 mph 40 % 0.0 in
19:55 17.8 °F 9.4 °F 1018.8 in Calm   1.6 mph 58 % 0.0 in
19:56 23.3 °F 9.3 °F 1017.8 in ESE 9.7 mph 9.7 mph 41 % 0.0 in
20:01 23.1 °F 9.1 °F 1017.8 in ESE 7.4 mph 7.4 mph 41 % 0.0 in
20:05 17.5 °F 9.2 °F 1018.8 in WSW 3.2 mph 3.2 mph 58 % 0.0 in
20:06 23.1 °F 9.1 °F 1017.8 in SSE 4.7 mph 4.7 mph 41 % 0.0 in
20:11 22.9 °F 9.3 °F 1017.8 in ESE 7.4 mph 7.4 mph 42 % 0.0 in
20:15 17.3 °F 8.9 °F 1018.8 in SW 3.2 mph 4.8 mph 58 % 0.0 in
20:16 22.9 °F 9.3 °F 1017.8 in SSW 3.7 mph 3.7 mph 42 % 0.0 in
20:21 22.8 °F 9.2 °F 1017.8 in East 9.3 mph 9.3 mph 42 % 0.0 in
20:25 17.1 °F 9.0 °F 1018.8 in Calm   3.2 mph 59 % 0.0 in
20:26 22.6 °F 9.4 °F 1017.8 in ESE 9.3 mph 9.3 mph 43 % 0.0 in
20:31 22.6 °F 9.7 °F 1017.8 in ESE 5.6 mph 5.6 mph 44 % 0.0 in
20:35 16.9 °F 9.3 °F 1018.8 in Calm   3.2 mph 61 % 0.0 in
20:36 22.4 °F 9.6 °F 1017.8 in ESE 7.4 mph 7.4 mph 44 % 0.0 in
20:41 22.2 °F 9.7 °F 1017.8 in ESE 9.3 mph 9.3 mph 45 % 0.0 in
20:45 16.8 °F 9.2 °F 1018.8 in Calm     61 % 0.0 in
20:46 22.1 °F 9.9 °F 1017.8 in East 5.8 mph 5.8 mph 46 % 0.0 in
20:51 21.9 °F 9.8 °F 1017.8 in SE 7.4 mph 7.4 mph 46 % 0.0 in
20:55 16.8 °F 9.5 °F 1018.8 in Calm   1.6 mph 62 % 0.0 in
20:56 21.8 °F 10.0 °F 1017.8 in ESE 9.3 mph 9.3 mph 47 % 0.0 in
21:01 21.7 °F 9.9 °F 1017.8 in ESE 5.6 mph 5.6 mph 47 % 0.0 in
21:05 16.8 °F 9.5 °F 1018.8 in Calm   1.6 mph 62 % 0.0 in
21:06 21.5 °F 10.0 °F 1016.8 in ESE 7.4 mph 7.4 mph 48 % 0.0 in
21:11 21.4 °F 9.9 °F 1016.8 in ENE 3.7 mph 3.7 mph 48 % 0.0 in
21:15 16.7 °F 9.4 °F 1018.8 in Calm   3.2 mph 62 % 0.0 in
21:16 21.3 °F 9.8 °F 1016.8 in East 7.4 mph 7.4 mph 48 % 0.0 in
21:21 21.1 °F 9.7 °F 1017.8 in SSW 7.4 mph 7.4 mph 48 % 0.0 in
21:25 16.7 °F 9.1 °F 1018.8 in NE 1.6 mph   61 % 0.0 in
21:26 21.1 °F 9.7 °F 1017.8 in ESE 3.2 mph 3.2 mph 48 % 0.0 in
21:31 21.0 °F 9.9 °F 1017.8 in NE 5.6 mph 5.6 mph 49 % 0.0 in
21:35 16.8 °F 9.2 °F 1018.8 in Calm     61 % 0.0 in
21:36 20.9 °F 10.1 °F 1017.8 in ESE 5.6 mph 5.6 mph 50 % 0.0 in
21:41 20.8 °F 10.3 °F 1017.8 in ESE 5.6 mph 5.6 mph 51 % 0.0 in
21:45 17.0 °F 9.2 °F 1018.8 in Calm     60 % 0.0 in
21:46 20.7 °F 10.2 °F 1017.8 in East 1.9 mph   51 % 0.0 in
21:51 20.6 °F 10.1 °F 1017.8 in ESE 4.7 mph 4.7 mph 51 % 0.0 in
21:55 16.9 °F 9.6 °F 1018.8 in Calm     62 % 0.0 in
21:56 20.6 °F 10.1 °F 1017.8 in NE 2.3 mph 2.3 mph 51 % 0.0 in
22:01 20.5 °F 10.0 °F 1017.8 in SSW 1.9 mph 1.9 mph 51 % 0.0 in
22:05 16.5 °F 9.2 °F 1018.8 in Calm   3.2 mph 62 % 0.0 in
22:06 20.4 °F 9.9 °F 1018.8 in Calm     51 % 0.0 in
22:11 20.3 °F 9.8 °F 1018.8 in SW 1.9 mph 1.9 mph 51 % 0.0 in
22:15 16.4 °F 8.8 °F 1018.8 in SW 1.6 mph 3.2 mph 61 % 0.0 in
22:16 20.2 °F 10.0 °F 1018.8 in SW 2.6 mph 2.6 mph 52 % 0.0 in
22:21 20.1 °F 9.9 °F 1018.8 in Calm     52 % 0.0 in
22:25 16.3 °F 9.0 °F 1017.8 in Calm     62 % 0.0 in
22:26 20.0 °F 9.8 °F 1018.8 in Calm     52 % 0.0 in
22:31 19.9 °F 9.7 °F 1018.8 in Calm     52 % 0.0 in
22:35 16.2 °F 8.9 °F 1017.8 in SW 3.2 mph 3.2 mph 62 % 0.0 in
22:36 19.9 °F 9.7 °F 1018.8 in Calm     52 % 0.0 in
22:41 19.9 °F 10.1 °F 1018.8 in NNE 1.9 mph 1.9 mph 53 % 0.0 in
22:45 16.2 °F 8.9 °F 1017.8 in SW 1.6 mph 3.2 mph 62 % 0.0 in
22:46 19.8 °F 9.9 °F 1018.8 in Calm     53 % 0.0 in
22:51 19.7 °F 9.8 °F 1019.9 in Calm     53 % 0.0 in
22:55 16.2 °F 8.9 °F 1017.8 in WSW 1.6 mph 3.2 mph 62 % 0.0 in
22:56 19.7 °F 9.8 °F 1019.9 in NW 1.9 mph 1.9 mph 53 % 0.0 in
23:01 19.6 °F 10.1 °F 1019.9 in NNW 1.9 mph   54 % 0.0 in
23:06 19.5 °F 9.9 °F 1019.9 in Calm     54 % 0.0 in
23:11 19.4 °F 10.1 °F 1019.9 in NNW 1.9 mph   55 % 0.0 in
23:15 16.2 °F 9.2 °F 1017.8 in Calm     63 % 0.0 in
23:16 19.4 °F 10.1 °F 1019.9 in Calm     55 % 0.0 in
23:21 19.3 °F 10.1 °F 1019.9 in NNE 3.2 mph 3.2 mph 55 % 0.0 in
23:25 16.2 °F 9.2 °F 1017.8 in Calm     63 % 0.0 in
23:26 19.3 °F 10.1 °F 1019.9 in NNE 1.9 mph   55 % 0.0 in
23:31 19.2 °F 9.9 °F 1019.9 in Calm     55 % 0.0 in
23:35 16.2 °F 9.2 °F 1016.8 in Calm     63 % 0.0 in
23:36 19.2 °F 9.9 °F 1019.9 in West 1.9 mph 1.9 mph 55 % 0.0 in
23:41 19.1 °F 9.8 °F 1019.9 in Calm     55 % 0.0 in
23:45 16.4 °F 9.3 °F 1016.8 in SW 1.6 mph 1.6 mph 63 % 0.0 in
23:46 19.0 °F 10.0 °F 1019.9 in Calm     56 % 0.0 in
23:51 19.0 °F 10.0 °F 1019.9 in Calm     56 % 0.0 in
23:55 16.4 °F 9.3 °F 1017.8 in Calm     63 % 0.0 in
23:56 19.0 °F 10.0 °F 1019.9 in Calm     56 % 0.0 in
Meteo Sesrovires
Elogis d' Weather Underground - 2 mb

Guio original per  Jim McMurry - jmcmurry@mwt.net Adaptat per a la plantilla per  Wim van der Kuil - Leuven-Template.eu

Trobareu la nostra informacio del temps tambe a:

Weather Underground

AWEKAS